sensor_id;sensor_type;location;lat;lon;timestamp;pressure;altitude;pressure_sealevel;temperature
70831;BMP180;58451;51.550;7.208;2022-07-18T00:02:26;101754.80;;;15.50
70831;BMP180;58451;51.550;7.208;2022-07-18T00:04:53;101754.60;;;15.42
70831;BMP180;58451;51.550;7.208;2022-07-18T00:07:20;101753.00;;;15.40
70831;BMP180;58451;51.550;7.208;2022-07-18T00:09:47;101752.00;;;15.40
70831;BMP180;58451;51.550;7.208;2022-07-18T00:12:14;101753.80;;;15.30
70831;BMP180;58451;51.550;7.208;2022-07-18T00:14:42;101755.80;;;15.30
70831;BMP180;58451;51.550;7.208;2022-07-18T00:17:09;101752.80;;;15.28
70831;BMP180;58451;51.550;7.208;2022-07-18T00:19:37;101760.00;;;15.20
70831;BMP180;58451;51.550;7.208;2022-07-18T00:22:05;101750.80;;;15.20
70831;BMP180;58451;51.550;7.208;2022-07-18T00:24:32;101745.40;;;15.20
70831;BMP180;58451;51.550;7.208;2022-07-18T00:27:00;101737.00;;;15.10
70831;BMP180;58451;51.550;7.208;2022-07-18T00:29:28;101731.60;;;15.10
70831;BMP180;58451;51.550;7.208;2022-07-18T00:31:54;101731.20;;;15.02
70831;BMP180;58451;51.550;7.208;2022-07-18T00:34:21;101730.80;;;15.00
70831;BMP180;58451;51.550;7.208;2022-07-18T00:36:48;101728.00;;;15.00
70831;BMP180;58451;51.550;7.208;2022-07-18T00:39:15;101727.40;;;15.00
70831;BMP180;58451;51.550;7.208;2022-07-18T00:41:47;101725.60;;;14.90
70831;BMP180;58451;51.550;7.208;2022-07-18T00:44:24;101725.20;;;14.90
70831;BMP180;58451;51.550;7.208;2022-07-18T00:46:53;101725.00;;;14.90
70831;BMP180;58451;51.550;7.208;2022-07-18T00:49:21;101727.80;;;14.90
70831;BMP180;58451;51.550;7.208;2022-07-18T00:51:49;101717.20;;;14.88
70831;BMP180;58451;51.550;7.208;2022-07-18T00:54:17;101718.40;;;14.80
70831;BMP180;58451;51.550;7.208;2022-07-18T00:56:48;101716.00;;;14.80
70831;BMP180;58451;51.550;7.208;2022-07-18T00:59:15;101715.40;;;14.78
70831;BMP180;58451;51.550;7.208;2022-07-18T01:01:43;101717.80;;;14.70
70831;BMP180;58451;51.550;7.208;2022-07-18T01:06:40;101729.20;;;14.68
70831;BMP180;58451;51.550;7.208;2022-07-18T01:09:08;101724.60;;;14.60
70831;BMP180;58451;51.550;7.208;2022-07-18T01:11:36;101727.60;;;14.60
70831;BMP180;58451;51.550;7.208;2022-07-18T01:14:04;101718.20;;;14.60
70831;BMP180;58451;51.550;7.208;2022-07-18T01:16:34;101721.60;;;14.50
70831;BMP180;58451;51.550;7.208;2022-07-18T01:19:02;101726.00;;;14.50
70831;BMP180;58451;51.550;7.208;2022-07-18T01:21:30;101720.40;;;14.50
70831;BMP180;58451;51.550;7.208;2022-07-18T01:23:57;101724.40;;;14.40
70831;BMP180;58451;51.550;7.208;2022-07-18T01:26:24;101725.40;;;14.40
70831;BMP180;58451;51.550;7.208;2022-07-18T01:28:51;101728.00;;;14.40
70831;BMP180;58451;51.550;7.208;2022-07-18T01:31:18;101724.80;;;14.30
70831;BMP180;58451;51.550;7.208;2022-07-18T01:33:45;101725.00;;;14.30
70831;BMP180;58451;51.550;7.208;2022-07-18T01:36:11;101722.00;;;14.30
70831;BMP180;58451;51.550;7.208;2022-07-18T01:38:39;101721.80;;;14.30
70831;BMP180;58451;51.550;7.208;2022-07-18T01:41:06;101717.20;;;14.30
70831;BMP180;58451;51.550;7.208;2022-07-18T01:43:33;101714.40;;;14.20
70831;BMP180;58451;51.550;7.208;2022-07-18T01:46:01;101709.80;;;14.20
70831;BMP180;58451;51.550;7.208;2022-07-18T01:48:29;101707.80;;;14.20
70831;BMP180;58451;51.550;7.208;2022-07-18T01:50:56;101705.80;;;14.10
70831;BMP180;58451;51.550;7.208;2022-07-18T01:53:23;101706.00;;;14.10
70831;BMP180;58451;51.550;7.208;2022-07-18T01:55:51;101698.80;;;14.10
70831;BMP180;58451;51.550;7.208;2022-07-18T01:58:18;101702.00;;;14.10
70831;BMP180;58451;51.550;7.208;2022-07-18T02:00:45;101696.20;;;14.10
70831;BMP180;58451;51.550;7.208;2022-07-18T02:03:12;101697.20;;;14.10
70831;BMP180;58451;51.550;7.208;2022-07-18T02:05:39;101694.60;;;14.10
70831;BMP180;58451;51.550;7.208;2022-07-18T02:08:06;101695.20;;;14.10
70831;BMP180;58451;51.550;7.208;2022-07-18T02:10:33;101698.20;;;14.06
70831;BMP180;58451;51.550;7.208;2022-07-18T02:13:00;101700.00;;;14.00
70831;BMP180;58451;51.550;7.208;2022-07-18T02:15:27;101696.40;;;14.00
70831;BMP180;58451;51.550;7.208;2022-07-18T02:17:54;101703.00;;;14.00
70831;BMP180;58451;51.550;7.208;2022-07-18T02:20:21;101705.20;;;14.00
70831;BMP180;58451;51.550;7.208;2022-07-18T02:22:48;101701.00;;;14.00
70831;BMP180;58451;51.550;7.208;2022-07-18T02:25:15;101693.00;;;14.00
70831;BMP180;58451;51.550;7.208;2022-07-18T02:27:42;101692.20;;;13.90
70831;BMP180;58451;51.550;7.208;2022-07-18T02:30:10;101689.80;;;13.90
70831;BMP180;58451;51.550;7.208;2022-07-18T02:32:38;101684.40;;;13.90
70831;BMP180;58451;51.550;7.208;2022-07-18T02:35:07;101688.40;;;13.90
70831;BMP180;58451;51.550;7.208;2022-07-18T02:37:35;101684.00;;;13.88
70831;BMP180;58451;51.550;7.208;2022-07-18T02:40:10;101682.60;;;13.86
70831;BMP180;58451;51.550;7.208;2022-07-18T02:42:38;101683.40;;;13.80
70831;BMP180;58451;51.550;7.208;2022-07-18T02:45:07;101684.80;;;13.80
70831;BMP180;58451;51.550;7.208;2022-07-18T02:47:34;101680.60;;;13.80
70831;BMP180;58451;51.550;7.208;2022-07-18T02:50:01;101681.60;;;13.80
70831;BMP180;58451;51.550;7.208;2022-07-18T02:52:28;101686.00;;;13.80
70831;BMP180;58451;51.550;7.208;2022-07-18T02:54:55;101689.40;;;13.74
70831;BMP180;58451;51.550;7.208;2022-07-18T02:57:23;101688.80;;;13.70
70831;BMP180;58451;51.550;7.208;2022-07-18T02:59:50;101680.20;;;13.70
70831;BMP180;58451;51.550;7.208;2022-07-18T03:02:17;101684.20;;;13.70
70831;BMP180;58451;51.550;7.208;2022-07-18T03:04:44;101684.00;;;13.60
70831;BMP180;58451;51.550;7.208;2022-07-18T03:07:11;101678.40;;;13.60
70831;BMP180;58451;51.550;7.208;2022-07-18T03:09:38;101681.20;;;13.60
70831;BMP180;58451;51.550;7.208;2022-07-18T03:12:05;101679.20;;;13.52
70831;BMP180;58451;51.550;7.208;2022-07-18T03:14:33;101675.00;;;13.50
70831;BMP180;58451;51.550;7.208;2022-07-18T03:16:59;101676.40;;;13.50
70831;BMP180;58451;51.550;7.208;2022-07-18T03:19:27;101672.60;;;13.46
70831;BMP180;58451;51.550;7.208;2022-07-18T03:21:54;101672.60;;;13.40
70831;BMP180;58451;51.550;7.208;2022-07-18T03:24:21;101671.40;;;13.40
70831;BMP180;58451;51.550;7.208;2022-07-18T03:26:48;101672.00;;;13.40
70831;BMP180;58451;51.550;7.208;2022-07-18T03:29:15;101669.60;;;13.40
70831;BMP180;58451;51.550;7.208;2022-07-18T03:31:42;101667.80;;;13.40
70831;BMP180;58451;51.550;7.208;2022-07-18T03:34:08;101666.00;;;13.36
70831;BMP180;58451;51.550;7.208;2022-07-18T03:36:37;101662.60;;;13.30
70831;BMP180;58451;51.550;7.208;2022-07-18T03:39:06;101662.80;;;13.30
70831;BMP180;58451;51.550;7.208;2022-07-18T03:41:33;101662.40;;;13.30
70831;BMP180;58451;51.550;7.208;2022-07-18T03:44:01;101658.20;;;13.30
70831;BMP180;58451;51.550;7.208;2022-07-18T03:46:29;101666.20;;;13.30
70831;BMP180;58451;51.550;7.208;2022-07-18T03:48:57;101666.20;;;13.30
70831;BMP180;58451;51.550;7.208;2022-07-18T03:51:24;101663.80;;;13.30
70831;BMP180;58451;51.550;7.208;2022-07-18T03:53:52;101666.40;;;13.36
70831;BMP180;58451;51.550;7.208;2022-07-18T03:56:19;101667.20;;;13.40
70831;BMP180;58451;51.550;7.208;2022-07-18T03:58:46;101673.00;;;13.40
70831;BMP180;58451;51.550;7.208;2022-07-18T04:01:13;101669.20;;;13.40
70831;BMP180;58451;51.550;7.208;2022-07-18T04:03:40;101674.00;;;13.40
70831;BMP180;58451;51.550;7.208;2022-07-18T04:06:07;101672.40;;;13.40
70831;BMP180;58451;51.550;7.208;2022-07-18T04:08:34;101665.60;;;13.40
70831;BMP180;58451;51.550;7.208;2022-07-18T04:11:01;101672.00;;;13.50
70831;BMP180;58451;51.550;7.208;2022-07-18T04:13:28;101672.00;;;13.50
70831;BMP180;58451;51.550;7.208;2022-07-18T04:15:55;101670.60;;;13.50
70831;BMP180;58451;51.550;7.208;2022-07-18T04:18:22;101662.00;;;13.60
70831;BMP180;58451;51.550;7.208;2022-07-18T04:20:48;101658.40;;;13.60
70831;BMP180;58451;51.550;7.208;2022-07-18T04:23:16;101659.40;;;13.70
70831;BMP180;58451;51.550;7.208;2022-07-18T04:25:45;101661.80;;;13.70
70831;BMP180;58451;51.550;7.208;2022-07-18T04:28:13;101662.00;;;13.80
70831;BMP180;58451;51.550;7.208;2022-07-18T04:30:42;101665.40;;;13.80
70831;BMP180;58451;51.550;7.208;2022-07-18T04:33:10;101667.00;;;13.90
70831;BMP180;58451;51.550;7.208;2022-07-18T04:35:39;101662.80;;;13.92
70831;BMP180;58451;51.550;7.208;2022-07-18T04:38:10;101666.80;;;14.00
70831;BMP180;58451;51.550;7.208;2022-07-18T04:40:37;101669.80;;;14.10
70831;BMP180;58451;51.550;7.208;2022-07-18T04:43:05;101662.80;;;14.14
70831;BMP180;58451;51.550;7.208;2022-07-18T04:45:34;101662.00;;;14.20
70831;BMP180;58451;51.550;7.208;2022-07-18T04:48:04;101667.00;;;14.30
70831;BMP180;58451;51.550;7.208;2022-07-18T04:50:32;101666.40;;;14.36
70831;BMP180;58451;51.550;7.208;2022-07-18T04:52:59;101664.20;;;14.40
70831;BMP180;58451;51.550;7.208;2022-07-18T04:55:26;101657.80;;;14.50
70831;BMP180;58451;51.550;7.208;2022-07-18T04:57:55;101661.60;;;14.60
70831;BMP180;58451;51.550;7.208;2022-07-18T05:00:25;101655.20;;;14.70
70831;BMP180;58451;51.550;7.208;2022-07-18T05:02:55;101655.20;;;14.80
70831;BMP180;58451;51.550;7.208;2022-07-18T05:05:26;101663.80;;;14.90
70831;BMP180;58451;51.550;7.208;2022-07-18T05:08:03;101662.20;;;15.00
70831;BMP180;58451;51.550;7.208;2022-07-18T05:10:30;101666.20;;;15.10
70831;BMP180;58451;51.550;7.208;2022-07-18T05:12:57;101663.20;;;15.20
70831;BMP180;58451;51.550;7.208;2022-07-18T05:15:25;101660.80;;;15.30
70831;BMP180;58451;51.550;7.208;2022-07-18T05:17:53;101661.80;;;15.40
70831;BMP180;58451;51.550;7.208;2022-07-18T05:20:24;101659.20;;;15.50
70831;BMP180;58451;51.550;7.208;2022-07-18T05:22:52;101655.00;;;15.50
70831;BMP180;58451;51.550;7.208;2022-07-18T05:25:21;101654.60;;;15.60
70831;BMP180;58451;51.550;7.208;2022-07-18T05:27:52;101654.00;;;15.70
70831;BMP180;58451;51.550;7.208;2022-07-18T05:30:21;101653.00;;;15.88
70831;BMP180;58451;51.550;7.208;2022-07-18T05:32:50;101644.40;;;16.00
70831;BMP180;58451;51.550;7.208;2022-07-18T05:35:18;101648.40;;;16.10
70831;BMP180;58451;51.550;7.208;2022-07-18T05:37:45;101645.20;;;16.26
70831;BMP180;58451;51.550;7.208;2022-07-18T05:40:14;101647.40;;;16.40
70831;BMP180;58451;51.550;7.208;2022-07-18T05:42:42;101642.40;;;16.50
70831;BMP180;58451;51.550;7.208;2022-07-18T05:45:22;101642.20;;;16.60
70831;BMP180;58451;51.550;7.208;2022-07-18T05:47:51;101632.80;;;16.72
70831;BMP180;58451;51.550;7.208;2022-07-18T05:50:18;101631.20;;;16.90
70831;BMP180;58451;51.550;7.208;2022-07-18T05:52:45;101629.20;;;17.00
70831;BMP180;58451;51.550;7.208;2022-07-18T05:55:13;101632.20;;;17.20
70831;BMP180;58451;51.550;7.208;2022-07-18T05:57:40;101628.60;;;17.30
70831;BMP180;58451;51.550;7.208;2022-07-18T06:00:09;101628.60;;;17.40
70831;BMP180;58451;51.550;7.208;2022-07-18T06:02:37;101630.80;;;17.60
70831;BMP180;58451;51.550;7.208;2022-07-18T06:05:06;101629.20;;;17.70
70831;BMP180;58451;51.550;7.208;2022-07-18T06:07:48;101629.00;;;17.80
70831;BMP180;58451;51.550;7.208;2022-07-18T06:10:15;101619.60;;;17.98
70831;BMP180;58451;51.550;7.208;2022-07-18T06:12:42;101618.00;;;18.10
70831;BMP180;58451;51.550;7.208;2022-07-18T06:15:10;101619.60;;;18.20
70831;BMP180;58451;51.550;7.208;2022-07-18T06:17:37;101615.40;;;18.40
70831;BMP180;58451;51.550;7.208;2022-07-18T06:20:07;101615.40;;;18.50
70831;BMP180;58451;51.550;7.208;2022-07-18T06:22:36;101611.80;;;18.70
70831;BMP180;58451;51.550;7.208;2022-07-18T06:25:04;101608.00;;;18.90
70831;BMP180;58451;51.550;7.208;2022-07-18T06:27:31;101611.00;;;19.00
70831;BMP180;58451;51.550;7.208;2022-07-18T06:29:58;101613.40;;;19.20
70831;BMP180;58451;51.550;7.208;2022-07-18T06:32:26;101612.20;;;19.40
70831;BMP180;58451;51.550;7.208;2022-07-18T06:34:53;101608.60;;;19.56
70831;BMP180;58451;51.550;7.208;2022-07-18T06:37:19;101613.60;;;19.62
70831;BMP180;58451;51.550;7.208;2022-07-18T06:39:46;101605.60;;;19.80
70831;BMP180;58451;51.550;7.208;2022-07-18T06:42:13;101606.80;;;20.00
70831;BMP180;58451;51.550;7.208;2022-07-18T06:44:41;101601.00;;;20.20
70831;BMP180;58451;51.550;7.208;2022-07-18T06:47:08;101605.60;;;20.40
70831;BMP180;58451;51.550;7.208;2022-07-18T06:49:34;101608.60;;;20.54
70831;BMP180;58451;51.550;7.208;2022-07-18T06:52:02;101615.00;;;20.70
70831;BMP180;58451;51.550;7.208;2022-07-18T06:54:31;101618.40;;;20.90
70831;BMP180;58451;51.550;7.208;2022-07-18T06:57:00;101608.20;;;21.00
70831;BMP180;58451;51.550;7.208;2022-07-18T06:59:26;101607.80;;;21.20
70831;BMP180;58451;51.550;7.208;2022-07-18T07:01:53;101612.60;;;21.40
70831;BMP180;58451;51.550;7.208;2022-07-18T07:04:20;101603.60;;;21.60
70831;BMP180;58451;51.550;7.208;2022-07-18T07:06:47;101604.00;;;21.82
70831;BMP180;58451;51.550;7.208;2022-07-18T07:09:14;101606.00;;;22.00
70831;BMP180;58451;51.550;7.208;2022-07-18T07:11:41;101598.60;;;22.20
70831;BMP180;58451;51.550;7.208;2022-07-18T07:14:07;101599.40;;;22.40
70831;BMP180;58451;51.550;7.208;2022-07-18T07:16:34;101596.20;;;22.60
70831;BMP180;58451;51.550;7.208;2022-07-18T07:19:02;101595.60;;;22.80
70831;BMP180;58451;51.550;7.208;2022-07-18T07:21:29;101593.20;;;23.00
70831;BMP180;58451;51.550;7.208;2022-07-18T07:23:56;101595.00;;;23.10
70831;BMP180;58451;51.550;7.208;2022-07-18T07:26:23;101591.40;;;23.14
70831;BMP180;58451;51.550;7.208;2022-07-18T07:28:50;101592.20;;;23.20
70831;BMP180;58451;51.550;7.208;2022-07-18T07:31:17;101593.80;;;23.38
70831;BMP180;58451;51.550;7.208;2022-07-18T07:33:44;101593.60;;;23.50
70831;BMP180;58451;51.550;7.208;2022-07-18T07:36:11;101587.80;;;23.60
70831;BMP180;58451;51.550;7.208;2022-07-18T07:38:38;101579.60;;;23.70
70831;BMP180;58451;51.550;7.208;2022-07-18T07:41:06;101579.00;;;23.90
70831;BMP180;58451;51.550;7.208;2022-07-18T07:43:33;101574.80;;;24.10
70831;BMP180;58451;51.550;7.208;2022-07-18T07:46:03;101581.20;;;24.26
70831;BMP180;58451;51.550;7.208;2022-07-18T07:48:30;101585.60;;;24.40
70831;BMP180;58451;51.550;7.208;2022-07-18T07:50:57;101584.80;;;24.50
70831;BMP180;58451;51.550;7.208;2022-07-18T07:53:24;101580.20;;;24.60
70831;BMP180;58451;51.550;7.208;2022-07-18T07:55:51;101578.40;;;24.70
70831;BMP180;58451;51.550;7.208;2022-07-18T07:58:18;101575.20;;;24.70
70831;BMP180;58451;51.550;7.208;2022-07-18T08:00:45;101575.20;;;24.90
70831;BMP180;58451;51.550;7.208;2022-07-18T08:03:13;101574.00;;;25.00
70831;BMP180;58451;51.550;7.208;2022-07-18T08:05:46;101570.60;;;25.10
70831;BMP180;58451;51.550;7.208;2022-07-18T08:08:14;101567.40;;;25.30
70831;BMP180;58451;51.550;7.208;2022-07-18T08:10:43;101563.40;;;25.46
70831;BMP180;58451;51.550;7.208;2022-07-18T08:13:11;101563.40;;;25.54
70831;BMP180;58451;51.550;7.208;2022-07-18T08:15:40;101561.80;;;25.60
70831;BMP180;58451;51.550;7.208;2022-07-18T08:18:07;101565.00;;;25.70
70831;BMP180;58451;51.550;7.208;2022-07-18T08:20:35;101568.40;;;25.88
70831;BMP180;58451;51.550;7.208;2022-07-18T08:23:05;101561.00;;;25.98
70831;BMP180;58451;51.550;7.208;2022-07-18T08:25:36;101556.20;;;26.10
70831;BMP180;58451;51.550;7.208;2022-07-18T08:28:05;101561.00;;;26.20
70831;BMP180;58451;51.550;7.208;2022-07-18T08:30:34;101565.00;;;26.30
70831;BMP180;58451;51.550;7.208;2022-07-18T08:33:02;101567.60;;;26.44
70831;BMP180;58451;51.550;7.208;2022-07-18T08:35:30;101567.00;;;26.60
70831;BMP180;58451;51.550;7.208;2022-07-18T08:38:00;101561.00;;;26.70
70831;BMP180;58451;51.550;7.208;2022-07-18T08:40:28;101558.00;;;26.84
70831;BMP180;58451;51.550;7.208;2022-07-18T08:42:57;101563.00;;;26.90
70831;BMP180;58451;51.550;7.208;2022-07-18T08:45:46;101558.00;;;27.00
70831;BMP180;58451;51.550;7.208;2022-07-18T08:48:15;101558.60;;;27.20
70831;BMP180;58451;51.550;7.208;2022-07-18T08:50:47;101562.40;;;27.30
70831;BMP180;58451;51.550;7.208;2022-07-18T08:53:17;101568.20;;;27.44
70831;BMP180;58451;51.550;7.208;2022-07-18T08:55:45;101571.00;;;27.50
70831;BMP180;58451;51.550;7.208;2022-07-18T08:58:14;101562.40;;;27.54
70831;BMP180;58451;51.550;7.208;2022-07-18T09:01:04;101558.20;;;27.60
70831;BMP180;58451;51.550;7.208;2022-07-18T09:03:31;101558.80;;;27.70
70831;BMP180;58451;51.550;7.208;2022-07-18T09:08:37;101559.60;;;28.00
70831;BMP180;58451;51.550;7.208;2022-07-18T09:11:10;101562.60;;;28.10
70831;BMP180;58451;51.550;7.208;2022-07-18T09:13:57;101558.20;;;28.26
70831;BMP180;58451;51.550;7.208;2022-07-18T09:16:24;101565.20;;;28.40
70831;BMP180;58451;51.550;7.208;2022-07-18T09:18:51;101564.80;;;28.40
70831;BMP180;58451;51.550;7.208;2022-07-18T09:21:22;101563.40;;;28.40
70831;BMP180;58451;51.550;7.208;2022-07-18T09:23:52;101560.20;;;28.50
70831;BMP180;58451;51.550;7.208;2022-07-18T09:26:41;101561.20;;;28.60
70831;BMP180;58451;51.550;7.208;2022-07-18T09:29:14;101559.00;;;28.60
70831;BMP180;58451;51.550;7.208;2022-07-18T09:31:53;101565.80;;;28.70
70831;BMP180;58451;51.550;7.208;2022-07-18T09:34:38;101563.00;;;28.70
70831;BMP180;58451;51.550;7.208;2022-07-18T09:37:11;101562.20;;;28.80
70831;BMP180;58451;51.550;7.208;2022-07-18T09:39:38;101560.60;;;28.92
70831;BMP180;58451;51.550;7.208;2022-07-18T09:42:17;101560.20;;;29.00
70831;BMP180;58451;51.550;7.208;2022-07-18T09:44:58;101558.20;;;29.10
70831;BMP180;58451;51.550;7.208;2022-07-18T09:47:27;101548.60;;;29.00
70831;BMP180;58451;51.550;7.208;2022-07-18T09:49:54;101551.80;;;29.10
70831;BMP180;58451;51.550;7.208;2022-07-18T09:52:22;101555.80;;;29.28
70831;BMP180;58451;51.550;7.208;2022-07-18T09:54:49;101555.00;;;29.40
70831;BMP180;58451;51.550;7.208;2022-07-18T09:57:25;101552.80;;;29.40
70831;BMP180;58451;51.550;7.208;2022-07-18T09:59:52;101548.40;;;29.50
70831;BMP180;58451;51.550;7.208;2022-07-18T10:02:20;101550.00;;;29.60
70831;BMP180;58451;51.550;7.208;2022-07-18T10:04:48;101546.20;;;29.72
70831;BMP180;58451;51.550;7.208;2022-07-18T10:07:16;101545.20;;;29.90
70831;BMP180;58451;51.550;7.208;2022-07-18T10:09:45;101550.80;;;30.00
70831;BMP180;58451;51.550;7.208;2022-07-18T10:12:15;101546.40;;;30.12
70831;BMP180;58451;51.550;7.208;2022-07-18T10:14:44;101542.20;;;30.20
70831;BMP180;58451;51.550;7.208;2022-07-18T10:17:11;101540.20;;;30.30
70831;BMP180;58451;51.550;7.208;2022-07-18T10:19:39;101549.00;;;30.30
70831;BMP180;58451;51.550;7.208;2022-07-18T10:22:07;101544.20;;;30.10
70831;BMP180;58451;51.550;7.208;2022-07-18T10:24:39;101543.60;;;30.20
70831;BMP180;58451;51.550;7.208;2022-07-18T10:27:20;101542.80;;;30.30
70831;BMP180;58451;51.550;7.208;2022-07-18T10:30:10;101544.20;;;30.40
70831;BMP180;58451;51.550;7.208;2022-07-18T10:32:38;101550.60;;;30.60
70831;BMP180;58451;51.550;7.208;2022-07-18T10:35:07;101548.20;;;30.60
70831;BMP180;58451;51.550;7.208;2022-07-18T10:37:35;101550.00;;;30.60
70831;BMP180;58451;51.550;7.208;2022-07-18T10:40:36;101548.60;;;30.52
70831;BMP180;58451;51.550;7.208;2022-07-18T10:46:03;101548.20;;;30.50
70831;BMP180;58451;51.550;7.208;2022-07-18T10:51:12;101549.60;;;30.70
70831;BMP180;58451;51.550;7.208;2022-07-18T10:59:19;101547.60;;;31.00
70831;BMP180;58451;51.550;7.208;2022-07-18T11:01:52;101549.80;;;31.10
70831;BMP180;58451;51.550;7.208;2022-07-18T11:04:34;101547.40;;;31.10
70831;BMP180;58451;51.550;7.208;2022-07-18T11:07:13;101547.60;;;31.30
70831;BMP180;58451;51.550;7.208;2022-07-18T11:09:46;101546.20;;;31.18
70831;BMP180;58451;51.550;7.208;2022-07-18T11:12:30;101547.60;;;31.30
70831;BMP180;58451;51.550;7.208;2022-07-18T11:15:07;101542.60;;;31.40
70831;BMP180;58451;51.550;7.208;2022-07-18T11:23:15;101535.40;;;31.48
70831;BMP180;58451;51.550;7.208;2022-07-18T11:25:42;101531.80;;;31.44
70831;BMP180;58451;51.550;7.208;2022-07-18T11:28:28;101528.00;;;31.50
70831;BMP180;58451;51.550;7.208;2022-07-18T11:31:06;101525.00;;;31.70
70831;BMP180;58451;51.550;7.208;2022-07-18T11:33:38;101522.00;;;31.80
70831;BMP180;58451;51.550;7.208;2022-07-18T11:36:13;101517.20;;;31.64
70831;BMP180;58451;51.550;7.208;2022-07-18T11:38:56;101517.80;;;31.60
70831;BMP180;58451;51.550;7.208;2022-07-18T11:41:24;101511.20;;;31.60
70831;BMP180;58451;51.550;7.208;2022-07-18T11:43:53;101504.40;;;31.80
70831;BMP180;58451;51.550;7.208;2022-07-18T11:46:26;101504.60;;;31.80
70831;BMP180;58451;51.550;7.208;2022-07-18T11:49:05;101501.20;;;31.80
70831;BMP180;58451;51.550;7.208;2022-07-18T11:51:42;101499.60;;;31.98
70831;BMP180;58451;51.550;7.208;2022-07-18T11:54:11;101500.00;;;32.20
70831;BMP180;58451;51.550;7.208;2022-07-18T11:56:54;101502.00;;;32.20
70831;BMP180;58451;51.550;7.208;2022-07-18T11:59:22;101497.60;;;31.98
70831;BMP180;58451;51.550;7.208;2022-07-18T12:01:50;101498.60;;;32.00
70831;BMP180;58451;51.550;7.208;2022-07-18T12:04:23;101499.20;;;32.10
70831;BMP180;58451;51.550;7.208;2022-07-18T12:07:25;101494.80;;;32.10
70831;BMP180;58451;51.550;7.208;2022-07-18T12:09:53;101493.80;;;32.30
70831;BMP180;58451;51.550;7.208;2022-07-18T12:12:22;101487.80;;;32.40
70831;BMP180;58451;51.550;7.208;2022-07-18T12:14:59;101488.20;;;32.72
70831;BMP180;58451;51.550;7.208;2022-07-18T12:17:28;101486.80;;;32.90
70831;BMP180;58451;51.550;7.208;2022-07-18T12:20:18;101489.20;;;32.80
70831;BMP180;58451;51.550;7.208;2022-07-18T12:23:05;101481.80;;;32.80
70831;BMP180;58451;51.550;7.208;2022-07-18T12:25:38;101478.60;;;32.90
70831;BMP180;58451;51.550;7.208;2022-07-18T12:28:17;101478.00;;;33.08
70831;BMP180;58451;51.550;7.208;2022-07-18T12:30:45;101479.80;;;33.10
70831;BMP180;58451;51.550;7.208;2022-07-18T12:33:13;101478.60;;;32.98
70831;BMP180;58451;51.550;7.208;2022-07-18T12:35:40;101474.20;;;33.00
70831;BMP180;58451;51.550;7.208;2022-07-18T12:38:11;101470.40;;;33.10
70831;BMP180;58451;51.550;7.208;2022-07-18T12:40:59;101469.60;;;33.10
70831;BMP180;58451;51.550;7.208;2022-07-18T12:43:31;101466.20;;;33.20
70831;BMP180;58451;51.550;7.208;2022-07-18T12:46:02;101461.40;;;33.40
70831;BMP180;58451;51.550;7.208;2022-07-18T12:48:31;101462.40;;;33.20
70831;BMP180;58451;51.550;7.208;2022-07-18T12:51:08;101467.80;;;33.20
70831;BMP180;58451;51.550;7.208;2022-07-18T12:53:42;101465.00;;;33.00
70831;BMP180;58451;51.550;7.208;2022-07-18T12:56:10;101468.40;;;33.20
70831;BMP180;58451;51.550;7.208;2022-07-18T12:58:38;101462.00;;;33.30
70831;BMP180;58451;51.550;7.208;2022-07-18T13:01:05;101459.40;;;33.30
70831;BMP180;58451;51.550;7.208;2022-07-18T13:03:35;101452.00;;;33.50
70831;BMP180;58451;51.550;7.208;2022-07-18T13:06:02;101445.40;;;33.74
70831;BMP180;58451;51.550;7.208;2022-07-18T13:08:29;101445.00;;;33.60
70831;BMP180;58451;51.550;7.208;2022-07-18T13:10:58;101441.40;;;33.62
70831;BMP180;58451;51.550;7.208;2022-07-18T13:13:26;101435.80;;;33.88
70831;BMP180;58451;51.550;7.208;2022-07-18T13:15:53;101431.20;;;34.04
70831;BMP180;58451;51.550;7.208;2022-07-18T13:18:21;101425.60;;;34.30
70831;BMP180;58451;51.550;7.208;2022-07-18T13:20:47;101431.00;;;34.50
70831;BMP180;58451;51.550;7.208;2022-07-18T13:23:14;101429.60;;;34.70
70831;BMP180;58451;51.550;7.208;2022-07-18T13:25:43;101436.60;;;34.78
70831;BMP180;58451;51.550;7.208;2022-07-18T13:28:10;101432.60;;;34.58
70831;BMP180;58451;51.550;7.208;2022-07-18T13:30:38;101430.80;;;34.32
70831;BMP180;58451;51.550;7.208;2022-07-18T13:33:05;101426.80;;;34.30
70831;BMP180;58451;51.550;7.208;2022-07-18T13:35:33;101424.00;;;34.20
70831;BMP180;58451;51.550;7.208;2022-07-18T13:38:01;101417.60;;;34.30
70831;BMP180;58451;51.550;7.208;2022-07-18T13:40:28;101425.40;;;34.30
70831;BMP180;58451;51.550;7.208;2022-07-18T13:42:55;101426.20;;;34.40
70831;BMP180;58451;51.550;7.208;2022-07-18T13:45:23;101419.00;;;34.54
70831;BMP180;58451;51.550;7.208;2022-07-18T13:47:49;101414.60;;;35.08
70831;BMP180;58451;51.550;7.208;2022-07-18T13:50:18;101408.00;;;35.80
70831;BMP180;58451;51.550;7.208;2022-07-18T13:52:45;101404.20;;;36.34
70831;BMP180;58451;51.550;7.208;2022-07-18T13:55:12;101401.40;;;36.70
70831;BMP180;58451;51.550;7.208;2022-07-18T13:57:39;101389.80;;;37.00
70831;BMP180;58451;51.550;7.208;2022-07-18T14:00:09;101388.80;;;37.94
70831;BMP180;58451;51.550;7.208;2022-07-18T14:02:37;101383.40;;;38.40
70831;BMP180;58451;51.550;7.208;2022-07-18T14:05:05;101390.00;;;38.60
70831;BMP180;58451;51.550;7.208;2022-07-18T14:07:42;101388.40;;;38.86
70831;BMP180;58451;51.550;7.208;2022-07-18T14:10:11;101388.20;;;39.36
70831;BMP180;58451;51.550;7.208;2022-07-18T14:12:39;101380.80;;;40.06
70831;BMP180;58451;51.550;7.208;2022-07-18T14:15:07;101382.00;;;40.78
70831;BMP180;58451;51.550;7.208;2022-07-18T14:17:35;101381.40;;;41.36
70831;BMP180;58451;51.550;7.208;2022-07-18T14:20:03;101380.20;;;41.90
70831;BMP180;58451;51.550;7.208;2022-07-18T14:22:30;101381.60;;;41.92
70831;BMP180;58451;51.550;7.208;2022-07-18T14:24:57;101380.80;;;42.04
70831;BMP180;58451;51.550;7.208;2022-07-18T14:27:24;101379.20;;;41.58
70831;BMP180;58451;51.550;7.208;2022-07-18T14:29:51;101377.20;;;41.70
70831;BMP180;58451;51.550;7.208;2022-07-18T14:32:19;101374.60;;;41.90